Terminal Aerodrome Forecast
Issued by NWS

Home | Current Version | Previous Version | Text Only | Print | Product List | Glossary On
Versions: 1 2 3 4 5 6 7 8 9 10 11 12 13 14 15 16 17 18 19 20 21 22 23 24 25 26 27 28 29
000
FTUS41 KBUF 291700
TAFJHW
TAF
KJHW 291739Z 2918/3018 12006KT P6SM FEW200 FEW250
     FM300300 16009KT P6SM BKN110
     FM301000 17007KT P6SM BKN150
     FM301700 19011KT P6SM FEW030 SCT130
      AMD LTD TO CLD VIS AND WIND=

USA.gov is the U.S. government's official web portal to all federal, state and local government web resources and services.